createdAt,value
2019-03-25T00:02:28.033Z,3.50
2019-03-25T00:04:54.554Z,3.50
2019-03-25T00:07:21.048Z,3.50
2019-03-25T00:09:47.416Z,3.40
2019-03-25T00:12:13.912Z,3.40
2019-03-25T00:14:40.308Z,3.40
2019-03-25T00:17:06.915Z,3.40
2019-03-25T00:19:33.315Z,3.40
2019-03-25T00:22:01.874Z,3.40
2019-03-25T00:24:38.173Z,3.40
2019-03-25T00:26:56.993Z,3.30
2019-03-25T00:29:23.570Z,3.40
2019-03-25T00:31:50.179Z,3.40
2019-03-25T00:34:16.641Z,3.30
2019-03-25T00:36:43.247Z,3.30
2019-03-25T00:39:09.750Z,3.30
2019-03-25T00:41:36.142Z,3.30
2019-03-25T00:44:03.367Z,3.20
2019-03-25T00:46:29.746Z,3.20
2019-03-25T00:48:56.254Z,3.20
2019-03-25T00:51:23.622Z,3.20
2019-03-25T00:53:50.123Z,3.20
2019-03-25T00:56:16.762Z,3.20
2019-03-25T00:58:43.228Z,3.10
2019-03-25T01:01:10.136Z,3.10
2019-03-25T01:03:36.744Z,3.10
2019-03-25T01:06:03.311Z,3.10
2019-03-25T01:08:30.528Z,3.10
2019-03-25T01:10:57.024Z,3.00
2019-03-25T01:13:23.570Z,3.00
2019-03-25T01:15:49.937Z,3.00
2019-03-25T01:18:17.446Z,3.00
2019-03-25T01:20:44.065Z,3.00
2019-03-25T01:23:10.590Z,3.00
2019-03-25T01:25:37.232Z,2.90
2019-03-25T01:28:03.733Z,2.90
2019-03-25T01:30:30.190Z,2.90
2019-03-25T01:32:56.682Z,2.90
2019-03-25T01:35:24.807Z,2.90
2019-03-25T01:37:52.170Z,2.90
2019-03-25T01:40:18.638Z,2.80
2019-03-25T01:42:45.056Z,2.80
2019-03-25T01:45:11.595Z,2.80
2019-03-25T01:47:38.007Z,2.80
2019-03-25T01:50:05.202Z,2.70
2019-03-25T01:52:31.755Z,2.70
2019-03-25T01:54:58.279Z,2.70
2019-03-25T01:57:24.883Z,2.70
2019-03-25T01:59:51.394Z,2.70
2019-03-25T02:02:17.865Z,2.60
2019-03-25T02:04:44.410Z,2.60
2019-03-25T02:07:10.826Z,2.60
2019-03-25T02:09:37.261Z,2.60
2019-03-25T02:12:04.010Z,2.60
2019-03-25T02:14:30.387Z,2.50
2019-03-25T02:16:56.964Z,2.60
2019-03-25T02:19:23.349Z,2.50
2019-03-25T02:21:49.856Z,2.50
2019-03-25T02:24:16.349Z,2.50
2019-03-25T02:26:42.875Z,2.50
2019-03-25T02:29:09.273Z,2.50
2019-03-25T02:31:35.846Z,2.50
2019-03-25T02:34:02.321Z,2.50
2019-03-25T02:36:28.822Z,2.40
2019-03-25T02:38:55.335Z,2.40
2019-03-25T02:41:21.917Z,2.40
2019-03-25T02:43:48.291Z,2.40
2019-03-25T02:46:14.779Z,2.40
2019-03-25T02:48:41.291Z,2.40
2019-03-25T02:51:07.667Z,2.40
2019-03-25T02:53:34.043Z,2.40
2019-03-25T02:56:00.639Z,2.30
2019-03-25T02:58:27.023Z,2.30
2019-03-25T03:00:53.436Z,2.30
2019-03-25T03:03:19.809Z,2.30
2019-03-25T03:05:46.444Z,2.30
2019-03-25T03:08:13.057Z,2.30
2019-03-25T03:10:39.667Z,2.30
2019-03-25T03:13:06.167Z,2.20
2019-03-25T03:15:32.688Z,2.20
2019-03-25T03:17:59.058Z,2.20
2019-03-25T03:20:25.675Z,2.20
2019-03-25T03:22:52.037Z,2.20
2019-03-25T03:25:19.184Z,2.20
2019-03-25T03:27:45.880Z,2.20
2019-03-25T03:30:12.413Z,2.20
2019-03-25T03:32:38.924Z,2.20
2019-03-25T03:35:06.177Z,2.20
2019-03-25T03:37:32.583Z,2.10
2019-03-25T03:39:58.894Z,2.10
2019-03-25T03:42:25.365Z,2.10
2019-03-25T03:44:51.831Z,2.10
2019-03-25T03:47:18.607Z,2.10
2019-03-25T03:49:45.090Z,2.10
2019-03-25T03:52:11.639Z,2.10
2019-03-25T03:54:38.101Z,2.10
2019-03-25T03:57:04.538Z,2.00
2019-03-25T03:59:30.937Z,2.00
2019-03-25T04:01:57.398Z,2.00
2019-03-25T04:04:24.018Z,2.00
2019-03-25T04:06:50.568Z,2.00
2019-03-25T04:09:18.143Z,1.90
2019-03-25T04:11:44.778Z,1.90
2019-03-25T04:14:11.295Z,1.90
2019-03-25T04:16:37.726Z,1.90
2019-03-25T04:19:04.260Z,1.90
2019-03-25T04:21:30.745Z,1.90
2019-03-25T04:23:57.143Z,1.80
2019-03-25T04:26:29.030Z,1.80
2019-03-25T04:28:51.995Z,1.80
2019-03-25T04:31:18.490Z,1.80
2019-03-25T04:33:44.988Z,1.80
2019-03-25T04:36:11.465Z,1.80
2019-03-25T04:38:37.940Z,1.80
2019-03-25T04:41:04.437Z,1.80
2019-03-25T04:43:30.881Z,1.80
2019-03-25T04:45:57.352Z,1.80
2019-03-25T04:48:23.795Z,1.80
2019-03-25T04:50:50.205Z,1.80
2019-03-25T04:53:16.702Z,1.80
2019-03-25T04:55:43.218Z,1.80
2019-03-25T04:58:09.778Z,1.80
2019-03-25T05:00:36.522Z,1.80
2019-03-25T05:03:03.167Z,1.80
2019-03-25T05:05:29.669Z,1.80
2019-03-25T05:07:56.127Z,1.80
2019-03-25T05:10:22.719Z,1.80
2019-03-25T05:12:49.124Z,1.90
2019-03-25T05:15:15.635Z,1.90
2019-03-25T05:17:42.129Z,1.90
2019-03-25T05:20:08.634Z,1.90
2019-03-25T05:22:35.165Z,1.90
2019-03-25T05:25:01.869Z,1.90
2019-03-25T05:27:28.439Z,1.90
2019-03-25T05:29:54.938Z,1.90
2019-03-25T05:32:21.451Z,2.00
2019-03-25T05:34:47.961Z,2.00
2019-03-25T05:37:14.463Z,2.10
2019-03-25T05:39:42.848Z,2.10
2019-03-25T05:42:09.359Z,2.20
2019-03-25T05:44:35.801Z,2.20
2019-03-25T05:47:02.476Z,2.20
2019-03-25T05:49:29.216Z,2.20
2019-03-25T05:51:55.813Z,2.30
2019-03-25T05:54:22.277Z,2.30
2019-03-25T05:56:48.750Z,2.30
2019-03-25T05:59:15.255Z,2.40
2019-03-25T06:01:44.065Z,2.50
2019-03-25T06:04:09.932Z,2.60
2019-03-25T06:06:36.531Z,2.70
2019-03-25T06:09:04.371Z,2.90
2019-03-25T06:11:30.998Z,3.20
2019-03-25T06:13:57.731Z,3.50
2019-03-25T06:16:24.097Z,3.70
2019-03-25T06:18:50.650Z,4.10
2019-03-25T06:21:17.201Z,4.20
2019-03-25T06:23:43.689Z,4.60
2019-03-25T06:26:10.210Z,4.40
2019-03-25T06:28:36.725Z,4.60
2019-03-25T06:31:03.357Z,4.60
2019-03-25T06:33:29.811Z,4.30
2019-03-25T06:35:57.698Z,4.80
2019-03-25T06:38:24.300Z,4.90
2019-03-25T06:40:52.588Z,5.00
2019-03-25T06:43:18.966Z,4.80
2019-03-25T06:45:45.424Z,5.40
2019-03-25T06:48:11.897Z,6.10
2019-03-25T06:50:38.438Z,6.20
2019-03-25T06:53:04.829Z,6.40
2019-03-25T06:55:31.334Z,6.40
2019-03-25T06:57:57.830Z,5.40
2019-03-25T07:00:24.263Z,4.70
2019-03-25T07:02:50.815Z,4.40
2019-03-25T07:05:17.147Z,4.00
2019-03-25T07:07:43.574Z,4.10
2019-03-25T07:10:10.983Z,4.10
2019-03-25T07:12:37.553Z,3.70
2019-03-25T07:15:06.233Z,3.80
2019-03-25T07:17:32.868Z,3.90
2019-03-25T07:20:02.586Z,4.00
2019-03-25T07:22:29.099Z,3.90
2019-03-25T07:24:55.461Z,3.80
2019-03-25T07:27:22.069Z,3.80
2019-03-25T07:29:48.546Z,3.80
2019-03-25T07:32:14.944Z,3.60
2019-03-25T07:34:41.401Z,3.50
2019-03-25T07:37:07.830Z,3.60
2019-03-25T07:39:34.466Z,3.50
2019-03-25T07:42:01.078Z,3.40
2019-03-25T07:44:27.504Z,3.40
2019-03-25T07:46:53.964Z,3.30
2019-03-25T07:49:20.619Z,3.40
2019-03-25T07:51:47.045Z,3.40
2019-03-25T07:54:13.481Z,3.50
2019-03-25T07:56:39.972Z,3.70
2019-03-25T07:59:06.479Z,3.80
2019-03-25T08:01:33.058Z,3.90
2019-03-25T08:03:59.533Z,3.60
2019-03-25T08:06:26.665Z,3.60
2019-03-25T08:09:03.372Z,4.00
2019-03-25T08:11:21.369Z,5.00
2019-03-25T08:13:47.857Z,5.80
2019-03-25T08:16:14.383Z,6.20
2019-03-25T08:18:41.046Z,6.70
2019-03-25T08:21:07.632Z,6.70
2019-03-25T08:23:35.410Z,6.30
2019-03-25T08:26:01.897Z,5.20
2019-03-25T08:28:28.390Z,4.80
2019-03-25T08:30:54.828Z,4.70
2019-03-25T08:33:21.536Z,5.40
2019-03-25T08:35:48.078Z,5.70
2019-03-25T08:38:14.988Z,5.10
2019-03-25T08:40:41.526Z,4.50
2019-03-25T08:43:08.013Z,4.10
2019-03-25T08:45:34.727Z,3.90
2019-03-25T08:48:01.333Z,3.50
2019-03-25T08:50:30.842Z,3.60
2019-03-25T08:52:57.366Z,3.40
2019-03-25T08:55:23.937Z,3.60
2019-03-25T08:57:50.419Z,3.50
2019-03-25T09:00:17.493Z,3.40
2019-03-25T09:02:44.011Z,3.40
2019-03-25T09:05:10.813Z,3.40
2019-03-25T09:07:37.310Z,3.40
2019-03-25T09:10:07.136Z,3.50
2019-03-25T09:12:33.790Z,3.50
2019-03-25T09:15:00.366Z,4.00
2019-03-25T09:17:26.892Z,4.20
2019-03-25T09:19:53.409Z,4.40
2019-03-25T09:22:20.020Z,4.50
2019-03-25T09:24:46.546Z,4.30
2019-03-25T09:27:13.142Z,4.30
2019-03-25T09:29:39.634Z,4.20
2019-03-25T09:32:06.212Z,4.20
2019-03-25T09:34:32.721Z,4.00
2019-03-25T09:36:59.349Z,3.90
2019-03-25T09:39:25.845Z,4.30
2019-03-25T09:41:52.246Z,4.40
2019-03-25T09:44:18.781Z,4.60
2019-03-25T09:46:45.434Z,4.50
2019-03-25T09:49:11.946Z,4.40
2019-03-25T09:51:38.668Z,4.40
2019-03-25T09:54:05.256Z,4.30
2019-03-25T09:56:31.703Z,4.60
2019-03-25T09:58:59.329Z,4.70
2019-03-25T10:01:25.725Z,4.90
2019-03-25T10:03:52.409Z,4.80
2019-03-25T10:06:20.064Z,4.70
2019-03-25T10:08:46.466Z,4.90
2019-03-25T10:11:13.085Z,4.90
2019-03-25T10:13:39.539Z,4.80
2019-03-25T10:16:06.067Z,4.90
2019-03-25T10:18:32.661Z,5.10
2019-03-25T10:20:59.183Z,5.10
2019-03-25T10:23:25.788Z,5.20
2019-03-25T10:25:52.612Z,5.20
2019-03-25T10:28:19.098Z,5.50
2019-03-25T10:30:45.667Z,5.60
2019-03-25T10:33:12.253Z,5.70
2019-03-25T10:35:38.739Z,5.80
2019-03-25T10:38:05.369Z,5.80
2019-03-25T10:40:32.031Z,5.70
2019-03-25T10:42:58.408Z,5.90
2019-03-25T10:45:24.993Z,5.90
2019-03-25T10:47:51.353Z,6.00
2019-03-25T10:50:17.879Z,6.20
2019-03-25T10:52:44.687Z,6.20
2019-03-25T10:55:11.403Z,6.40
2019-03-25T10:57:37.988Z,6.40
2019-03-25T11:00:07.284Z,6.30
2019-03-25T11:02:33.910Z,6.00
2019-03-25T11:05:00.361Z,6.00
2019-03-25T11:07:29.334Z,6.20
2019-03-25T11:09:55.264Z,6.00
2019-03-25T11:12:21.823Z,5.90
2019-03-25T11:14:48.205Z,6.00
2019-03-25T11:17:15.117Z,6.10
2019-03-25T11:19:41.668Z,6.10
2019-03-25T11:22:08.068Z,6.10
2019-03-25T11:24:34.583Z,6.20
2019-03-25T11:27:01.245Z,6.20
2019-03-25T11:29:27.825Z,6.30
2019-03-25T11:31:54.417Z,6.30
2019-03-25T11:34:21.844Z,6.30
2019-03-25T11:36:48.217Z,6.40
2019-03-25T11:39:14.762Z,6.30
2019-03-25T11:41:41.139Z,6.20
2019-03-25T11:44:09.869Z,6.40
2019-03-25T11:46:36.442Z,6.30
2019-03-25T11:49:03.230Z,6.30
2019-03-25T11:51:29.685Z,6.30
2019-03-25T11:53:56.285Z,6.50
2019-03-25T11:56:24.390Z,6.60
2019-03-25T11:58:50.909Z,6.50
2019-03-25T12:01:17.442Z,6.50
2019-03-25T12:03:43.977Z,6.50
2019-03-25T12:06:10.522Z,6.40
2019-03-25T12:08:38.965Z,6.40
2019-03-25T12:11:05.564Z,6.50
2019-03-25T12:13:33.954Z,6.60
2019-03-25T12:16:00.386Z,6.70
2019-03-25T12:18:26.875Z,6.80
2019-03-25T12:20:53.497Z,6.90
2019-03-25T12:23:26.270Z,6.90
2019-03-25T12:25:48.190Z,6.90
2019-03-25T12:28:14.501Z,6.90
2019-03-25T12:30:41.048Z,6.80
2019-03-25T12:33:07.553Z,6.80
2019-03-25T12:35:34.086Z,6.80
2019-03-25T12:38:01.037Z,6.90
2019-03-25T12:40:30.408Z,6.80
2019-03-25T12:43:00.455Z,7.10
2019-03-25T12:45:28.407Z,7.60
2019-03-25T12:47:55.209Z,8.40
2019-03-25T12:50:21.781Z,9.00
2019-03-25T12:52:48.394Z,8.20
2019-03-25T12:55:14.966Z,8.50
2019-03-25T12:57:41.489Z,8.60
2019-03-25T13:00:08.107Z,9.40
2019-03-25T13:02:34.688Z,10.60
2019-03-25T13:05:01.247Z,9.70
2019-03-25T13:07:27.737Z,9.90
2019-03-25T13:09:54.107Z,9.10
2019-03-25T13:12:20.643Z,9.30
2019-03-25T13:14:48.126Z,9.20
2019-03-25T13:17:14.605Z,9.40
2019-03-25T13:19:41.194Z,9.60
2019-03-25T13:22:07.742Z,9.10
2019-03-25T13:24:34.224Z,9.30
2019-03-25T13:27:00.822Z,9.50
2019-03-25T13:29:27.439Z,8.90
2019-03-25T13:31:53.862Z,8.60
2019-03-25T13:34:22.522Z,8.50
2019-03-25T13:36:49.195Z,9.40
2019-03-25T13:39:15.709Z,9.30
2019-03-25T13:41:42.191Z,9.00
2019-03-25T13:44:08.584Z,9.20
2019-03-25T13:46:35.265Z,8.70
2019-03-25T13:49:01.820Z,8.10
2019-03-25T13:51:28.302Z,8.00
2019-03-25T13:53:55.845Z,8.10
2019-03-25T13:56:22.341Z,8.20
2019-03-25T13:58:50.754Z,8.40
2019-03-25T14:01:17.211Z,8.40
2019-03-25T14:03:43.731Z,8.40
2019-03-25T14:06:10.369Z,8.00
2019-03-25T14:08:37.163Z,8.10
2019-03-25T14:11:03.673Z,8.20
2019-03-25T14:13:30.319Z,8.20
2019-03-25T14:15:56.791Z,7.90
2019-03-25T14:18:23.452Z,7.90
2019-03-25T14:20:49.883Z,7.70
2019-03-25T14:23:16.349Z,7.80
2019-03-25T14:25:42.855Z,7.90
2019-03-25T14:28:09.355Z,7.90
2019-03-25T14:30:36.100Z,8.00
2019-03-25T14:33:02.700Z,8.00
2019-03-25T14:35:29.267Z,7.90
2019-03-25T14:37:55.672Z,7.90
2019-03-25T14:40:22.240Z,8.00
2019-03-25T14:42:48.696Z,8.10
2019-03-25T14:45:25.854Z,8.10
2019-03-25T14:47:44.047Z,8.00
2019-03-25T14:50:10.561Z,7.90
2019-03-25T14:52:37.175Z,7.90
2019-03-25T14:55:04.363Z,7.70
2019-03-25T14:57:30.906Z,7.70
2019-03-25T14:59:57.497Z,7.60
2019-03-25T15:02:36.436Z,7.50
2019-03-25T15:05:05.693Z,7.50
2019-03-25T15:07:32.266Z,7.40
2019-03-25T15:09:58.755Z,7.40
2019-03-25T15:12:25.284Z,7.20
2019-03-25T15:14:51.764Z,7.30
2019-03-25T15:17:20.105Z,7.10
2019-03-25T15:19:46.727Z,7.20
2019-03-25T15:22:12.994Z,7.20
2019-03-25T15:24:39.918Z,7.20
2019-03-25T15:27:06.414Z,7.20
2019-03-25T15:29:33.104Z,7.20
2019-03-25T15:31:59.567Z,7.30
2019-03-25T15:34:26.057Z,7.10
2019-03-25T15:36:52.616Z,7.20
2019-03-25T15:39:19.454Z,7.30
2019-03-25T15:41:47.249Z,7.20
2019-03-25T15:44:13.841Z,7.20
2019-03-25T15:46:40.322Z,7.10
2019-03-25T15:49:08.224Z,7.00
2019-03-25T15:51:34.727Z,6.90
2019-03-25T15:54:01.408Z,7.00
2019-03-25T15:56:28.135Z,7.00
2019-03-25T15:58:54.496Z,7.00
2019-03-25T16:01:21.345Z,6.90
2019-03-25T16:03:47.733Z,6.90
2019-03-25T16:06:14.489Z,6.90
2019-03-25T16:08:41.220Z,6.90
2019-03-25T16:11:07.636Z,7.00
2019-03-25T16:13:34.163Z,6.90
2019-03-25T16:16:00.725Z,6.90
2019-03-25T16:18:32.971Z,6.90
2019-03-25T16:20:59.619Z,6.90
2019-03-25T16:23:26.048Z,6.90
2019-03-25T16:25:52.707Z,6.70
2019-03-25T16:28:19.080Z,6.70
2019-03-25T16:30:45.606Z,6.70
2019-03-25T16:33:12.118Z,6.60
2019-03-25T16:35:38.487Z,6.50
2019-03-25T16:38:04.992Z,6.50
2019-03-25T16:40:31.387Z,6.50
2019-03-25T16:42:58.336Z,6.40
2019-03-25T16:45:24.824Z,6.40
2019-03-25T16:47:51.334Z,6.50
2019-03-25T16:50:18.016Z,6.40
2019-03-25T16:52:45.169Z,6.40
2019-03-25T16:55:11.895Z,6.40
2019-03-25T16:57:38.555Z,6.30
2019-03-25T17:00:05.728Z,6.30
2019-03-25T17:02:32.307Z,6.20
2019-03-25T17:04:58.805Z,6.20
2019-03-25T17:07:25.426Z,6.10
2019-03-25T17:09:52.061Z,6.10
2019-03-25T17:12:18.580Z,6.10
2019-03-25T17:14:45.480Z,6.10
2019-03-25T17:17:12.115Z,6.10
2019-03-25T17:19:38.608Z,6.10
2019-03-25T17:22:05.259Z,6.00
2019-03-25T17:24:31.574Z,6.00
2019-03-25T17:26:58.166Z,5.90
2019-03-25T17:29:24.575Z,5.90
2019-03-25T17:31:51.033Z,5.90
2019-03-25T17:34:17.587Z,5.80
2019-03-25T17:36:44.179Z,5.70
2019-03-25T17:39:11.900Z,5.60
2019-03-25T17:41:38.485Z,5.50
2019-03-25T17:44:05.165Z,5.50
2019-03-25T17:46:31.555Z,5.40
2019-03-25T17:48:57.965Z,5.40
2019-03-25T17:51:24.555Z,5.40
2019-03-25T17:53:50.986Z,5.40
2019-03-25T17:56:17.438Z,5.30
2019-03-25T17:58:43.935Z,5.30
2019-03-25T18:01:12.586Z,5.30
2019-03-25T18:03:39.084Z,5.20
2019-03-25T18:06:05.641Z,5.20
2019-03-25T18:08:32.139Z,5.20
2019-03-25T18:10:58.694Z,5.20
2019-03-25T18:13:25.224Z,5.10
2019-03-25T18:15:51.953Z,5.10
2019-03-25T18:18:18.532Z,5.00
2019-03-25T18:20:45.003Z,5.00
2019-03-25T18:23:11.477Z,5.00
2019-03-25T18:25:37.962Z,4.90
2019-03-25T18:28:04.507Z,4.90
2019-03-25T18:30:32.566Z,4.80
2019-03-25T18:32:58.922Z,4.70
2019-03-25T18:35:25.848Z,4.70
2019-03-25T18:37:52.514Z,4.70
2019-03-25T18:40:18.851Z,4.60
2019-03-25T18:42:45.479Z,4.60
2019-03-25T18:45:12.242Z,4.60
2019-03-25T18:47:38.752Z,4.60
2019-03-25T18:50:06.087Z,4.50
2019-03-25T18:52:32.598Z,4.50
2019-03-25T18:54:59.249Z,4.50
2019-03-25T18:57:25.609Z,4.50
2019-03-25T18:59:52.229Z,4.50
2019-03-25T19:02:18.742Z,4.40
2019-03-25T19:04:45.257Z,4.40
2019-03-25T19:07:11.781Z,4.40
2019-03-25T19:09:38.300Z,4.40
2019-03-25T19:12:04.749Z,4.40
2019-03-25T19:14:31.241Z,4.40
2019-03-25T19:16:57.729Z,4.40
2019-03-25T19:19:24.111Z,4.40
2019-03-25T19:21:50.583Z,4.40
2019-03-25T19:24:17.093Z,4.40
2019-03-25T19:26:43.570Z,4.40
2019-03-25T19:29:10.074Z,4.40
2019-03-25T19:31:36.507Z,4.40
2019-03-25T19:34:03.108Z,4.40
2019-03-25T19:36:29.683Z,4.40
2019-03-25T19:38:56.253Z,4.40
2019-03-25T19:41:31.760Z,4.40
2019-03-25T19:43:51.432Z,4.40
2019-03-25T19:46:17.818Z,4.30
2019-03-25T19:48:44.302Z,4.30
2019-03-25T19:51:10.830Z,4.30
2019-03-25T19:53:37.320Z,4.30
2019-03-25T19:56:03.795Z,4.30
2019-03-25T19:58:30.085Z,4.30
2019-03-25T20:00:56.577Z,4.30
2019-03-25T20:03:23.157Z,4.30
2019-03-25T20:05:49.730Z,4.20
2019-03-25T20:08:16.286Z,4.20
2019-03-25T20:10:42.764Z,4.10
2019-03-25T20:13:09.348Z,4.10
2019-03-25T20:15:45.576Z,4.10
2019-03-25T20:18:04.209Z,4.00
2019-03-25T20:20:30.691Z,4.00
2019-03-25T20:22:57.166Z,3.90
2019-03-25T20:25:23.791Z,3.90
2019-03-25T20:27:50.292Z,3.90
2019-03-25T20:30:16.959Z,3.90
2019-03-25T20:32:43.468Z,3.80
2019-03-25T20:35:09.939Z,3.80
2019-03-25T20:37:36.379Z,3.80
2019-03-25T20:40:07.346Z,3.70
2019-03-25T20:42:33.856Z,3.70
2019-03-25T20:45:00.395Z,3.60
2019-03-25T20:47:26.877Z,3.60
2019-03-25T20:49:53.420Z,3.50
2019-03-25T20:52:19.879Z,3.50
2019-03-25T20:54:46.418Z,3.50
2019-03-25T20:57:12.800Z,3.50
2019-03-25T20:59:39.346Z,3.50
2019-03-25T21:02:05.783Z,3.50
2019-03-25T21:04:32.197Z,3.40
2019-03-25T21:06:59.313Z,3.40
2019-03-25T21:09:25.877Z,3.40
2019-03-25T21:11:52.398Z,3.40
2019-03-25T21:14:18.968Z,3.40
2019-03-25T21:16:45.406Z,3.30
2019-03-25T21:19:12.542Z,3.30
2019-03-25T21:21:38.864Z,3.30
2019-03-25T21:24:05.286Z,3.30
2019-03-25T21:26:31.688Z,3.30
2019-03-25T21:28:58.345Z,3.30
2019-03-25T21:31:24.752Z,3.30
2019-03-25T21:33:51.248Z,3.30
2019-03-25T21:36:17.711Z,3.30
2019-03-25T21:38:44.190Z,3.40
2019-03-25T21:41:10.569Z,3.40
2019-03-25T21:43:37.205Z,3.30
2019-03-25T21:46:03.599Z,3.40
2019-03-25T21:48:29.984Z,3.40
2019-03-25T21:50:56.637Z,3.30
2019-03-25T21:53:23.093Z,3.30
2019-03-25T21:55:49.635Z,3.30
2019-03-25T21:58:16.115Z,3.30
2019-03-25T22:00:42.811Z,3.30
2019-03-25T22:03:11.965Z,3.30
2019-03-25T22:05:37.631Z,3.30
2019-03-25T22:08:04.119Z,3.30
2019-03-25T22:10:30.537Z,3.30
2019-03-25T22:12:57.227Z,3.30
2019-03-25T22:15:23.563Z,3.30
2019-03-25T22:17:49.943Z,3.30
2019-03-25T22:20:16.436Z,3.30
2019-03-25T22:22:43.029Z,3.30
2019-03-25T22:25:09.514Z,3.30
2019-03-25T22:27:36.008Z,3.30
2019-03-25T22:30:05.087Z,3.20
2019-03-25T22:32:31.480Z,3.20
2019-03-25T22:34:57.937Z,3.20
2019-03-25T22:37:24.601Z,3.20
2019-03-25T22:39:51.094Z,3.20
2019-03-25T22:42:17.472Z,3.20
2019-03-25T22:44:43.865Z,3.20
2019-03-25T22:47:10.338Z,3.20
2019-03-25T22:49:36.750Z,3.20
2019-03-25T22:52:03.267Z,3.20
2019-03-25T22:54:29.582Z,3.20
2019-03-25T22:56:56.174Z,3.20
2019-03-25T22:59:22.628Z,3.20
2019-03-25T23:01:49.071Z,3.20
2019-03-25T23:04:15.562Z,3.20
2019-03-25T23:06:42.075Z,3.30
2019-03-25T23:09:11.261Z,3.30
2019-03-25T23:11:37.738Z,3.30
2019-03-25T23:14:04.201Z,3.20
2019-03-25T23:16:30.572Z,3.30
2019-03-25T23:18:57.068Z,3.30
2019-03-25T23:21:23.548Z,3.30
2019-03-25T23:23:50.029Z,3.20
2019-03-25T23:26:16.459Z,3.20
2019-03-25T23:28:43.035Z,3.20
2019-03-25T23:31:09.655Z,3.20
2019-03-25T23:33:36.356Z,3.20
2019-03-25T23:36:03.067Z,3.20
2019-03-25T23:38:29.367Z,3.20
2019-03-25T23:40:55.865Z,3.20
2019-03-25T23:43:22.255Z,3.20
2019-03-25T23:45:48.641Z,3.20
2019-03-25T23:48:15.092Z,3.20
2019-03-25T23:50:41.469Z,3.20
2019-03-25T23:53:07.917Z,3.20
2019-03-25T23:55:34.423Z,3.20
2019-03-25T23:58:00.909Z,3.20
